createdAt,value
2019-02-10T17:00:40.335Z,96037.00
2019-02-10T17:00:49.781Z,96034.00
2019-02-10T17:00:59.196Z,96033.00
2019-02-10T17:01:08.613Z,96032.00
2019-02-10T17:01:18.026Z,96031.00
2019-02-10T17:01:27.547Z,96037.00
2019-02-10T17:01:37.104Z,96036.00
2019-02-10T17:01:46.516Z,96033.00
2019-02-10T17:01:55.931Z,96037.00
2019-02-10T17:02:05.348Z,96034.00
2019-02-10T17:02:14.840Z,96040.00
2019-02-10T17:02:24.258Z,96038.00
2019-02-10T17:02:33.676Z,96019.00
2019-02-10T17:02:43.098Z,96031.00
2019-02-10T17:02:52.511Z,96035.00
2019-02-10T17:03:01.987Z,96034.00
2019-02-10T17:03:11.393Z,96033.00
2019-02-10T17:03:20.810Z,96024.00
2019-02-10T17:03:30.233Z,96040.00
2019-02-10T17:03:39.802Z,96031.00
2019-02-10T17:03:49.195Z,96032.00
2019-02-10T17:03:58.602Z,96037.00
2019-02-10T17:04:08.032Z,96023.00
2019-02-10T17:04:17.435Z,96025.00
2019-02-10T17:04:26.858Z,96027.00
2019-02-10T17:04:36.275Z,96028.00
2019-02-10T17:04:45.795Z,96025.00
2019-02-10T17:04:55.203Z,96028.00
2019-02-10T17:05:05.589Z,96024.00
2019-02-10T17:05:14.995Z,96033.00
2019-02-10T17:05:24.409Z,96030.00
2019-02-10T17:05:33.825Z,96024.00
2019-02-10T17:05:43.242Z,96026.00
2019-02-10T17:05:52.661Z,96025.00
2019-02-10T17:06:02.067Z,96025.00
2019-02-10T17:06:11.469Z,96025.00
2019-02-10T17:06:20.879Z,96029.00
2019-02-10T17:06:30.294Z,96027.00
2019-02-10T17:06:39.706Z,96033.00
2019-02-10T17:06:49.266Z,96022.00
2019-02-10T17:06:58.688Z,96026.00
2019-02-10T17:07:08.184Z,96020.00
2019-02-10T17:07:17.642Z,96025.00
2019-02-10T17:07:27.157Z,96018.00
2019-02-10T17:07:36.565Z,96026.00
2019-02-10T17:07:45.981Z,96021.00
2019-02-10T17:07:55.422Z,96020.00
2019-02-10T17:08:04.866Z,96026.00
2019-02-10T17:08:14.270Z,96029.00
2019-02-10T17:08:23.688Z,96015.00
2019-02-10T17:08:33.102Z,96035.00
2019-02-10T17:08:42.519Z,96025.00
2019-02-10T17:08:51.942Z,96022.00
2019-02-10T17:09:01.360Z,96021.00
2019-02-10T17:09:12.031Z,96025.00
2019-02-10T17:09:21.463Z,96026.00
2019-02-10T17:09:30.878Z,96029.00
2019-02-10T17:09:40.284Z,96030.00
2019-02-10T17:09:49.750Z,96038.00
2019-02-10T17:09:59.281Z,96036.00
2019-02-10T17:10:20.763Z,96029.00
2019-02-10T17:10:31.452Z,96037.00
2019-02-10T17:10:40.841Z,96035.00
2019-02-10T17:10:50.426Z,96032.00
2019-02-10T17:10:59.910Z,96043.00
2019-02-10T17:11:14.355Z,96036.00
2019-02-10T17:11:22.055Z,96032.00
2019-02-10T17:11:31.471Z,96040.00
2019-02-10T17:11:40.860Z,96044.00
2019-02-10T17:11:50.289Z,96039.00
2019-02-10T17:11:59.681Z,96036.00
2019-02-10T17:12:09.122Z,96043.00
2019-02-10T17:12:18.506Z,96047.00
2019-02-10T17:12:27.942Z,96043.00
2019-02-10T17:12:37.331Z,96047.00
2019-02-10T17:12:46.748Z,96050.00
2019-02-10T17:12:56.139Z,96052.00
2019-02-10T17:13:05.601Z,96042.00
2019-02-10T17:13:15.206Z,96048.00
2019-02-10T17:13:24.617Z,96050.00
2019-02-10T17:13:34.008Z,96051.00
2019-02-10T17:13:43.426Z,96046.00
2019-02-10T17:13:52.811Z,96050.00
2019-02-10T17:14:02.227Z,96049.00
2019-02-10T17:14:11.616Z,96055.00
2019-02-10T17:14:21.028Z,96050.00
2019-02-10T17:14:30.415Z,96048.00
2019-02-10T17:14:39.828Z,96051.00
2019-02-10T17:14:50.288Z,96055.00
2019-02-10T17:14:59.702Z,96049.00
2019-02-10T17:15:11.431Z,96049.00
2019-02-10T17:15:20.849Z,96052.00
2019-02-10T17:15:30.235Z,96056.00
2019-02-10T17:15:39.647Z,96058.00
2019-02-10T17:15:49.040Z,96053.00
2019-02-10T17:16:04.981Z,96057.00
2019-02-10T17:16:09.568Z,96055.00
2019-02-10T17:16:18.967Z,96057.00
2019-02-10T17:16:28.384Z,96064.00
2019-02-10T17:16:37.771Z,96051.00
2019-02-10T17:16:47.211Z,96053.00
2019-02-10T17:16:56.697Z,96050.00
2019-02-10T17:17:06.109Z,96052.00
2019-02-10T17:17:15.495Z,96051.00
2019-02-10T17:17:24.911Z,96053.00
2019-02-10T17:17:34.294Z,96046.00
2019-02-10T17:17:44.850Z,96053.00
2019-02-10T17:17:54.238Z,96052.00
2019-02-10T17:18:03.650Z,96052.00
2019-02-10T17:18:13.040Z,96051.00
2019-02-10T17:18:22.450Z,96053.00
2019-02-10T17:18:31.838Z,96047.00
2019-02-10T17:18:41.250Z,96048.00
2019-02-10T17:18:50.639Z,96042.00
2019-02-10T17:19:00.042Z,96042.00
2019-02-10T17:19:09.430Z,96052.00
2019-02-10T17:19:18.854Z,96053.00
2019-02-10T17:19:28.361Z,96048.00
2019-02-10T17:19:37.773Z,96046.00
2019-02-10T17:19:47.158Z,96051.00
2019-02-10T17:19:56.692Z,96053.00
2019-02-10T17:20:09.219Z,96051.00
2019-02-10T17:20:18.639Z,96050.00
2019-02-10T17:20:28.298Z,96055.00
2019-02-10T17:20:37.703Z,96053.00
2019-02-10T17:20:47.093Z,96051.00
2019-02-10T17:20:56.506Z,96048.00
2019-02-10T17:21:05.894Z,96045.00
2019-02-10T17:21:15.320Z,96045.00
2019-02-10T17:21:24.703Z,96044.00
2019-02-10T17:21:34.118Z,96045.00
2019-02-10T17:21:43.512Z,96045.00
2019-02-10T17:21:52.939Z,96052.00
2019-02-10T17:22:05.769Z,96041.00
2019-02-10T17:22:16.945Z,96040.00
2019-02-10T17:22:26.353Z,96041.00
2019-02-10T17:22:35.771Z,96041.00
2019-02-10T17:22:45.164Z,96036.00
2019-02-10T17:22:54.575Z,96038.00
2019-02-10T17:23:03.969Z,96033.00
2019-02-10T17:23:13.414Z,96031.00
2019-02-10T17:23:22.794Z,96034.00
2019-02-10T17:23:33.290Z,96039.00
2019-02-10T17:23:42.875Z,96029.00
2019-02-10T17:23:52.299Z,96030.00
2019-02-10T17:24:01.686Z,96028.00
2019-02-10T17:24:11.117Z,96025.00
2019-02-10T17:24:20.502Z,96033.00
2019-02-10T17:24:29.953Z,96031.00
2019-02-10T17:24:39.342Z,96034.00
2019-02-10T17:24:48.911Z,96039.00
2019-02-10T17:24:58.299Z,96037.00
2019-02-10T17:25:14.103Z,96036.00
2019-02-10T17:25:26.743Z,96037.00
2019-02-10T17:25:36.158Z,96035.00
2019-02-10T17:25:45.546Z,96033.00
2019-02-10T17:25:54.985Z,96038.00
2019-02-10T17:26:04.354Z,96048.00
2019-02-10T17:26:13.778Z,96041.00
2019-02-10T17:26:23.169Z,96040.00
2019-02-10T17:26:32.574Z,96041.00
2019-02-10T17:26:41.969Z,96042.00
2019-02-10T17:26:51.378Z,96049.00
2019-02-10T17:27:00.766Z,96048.00
2019-02-10T17:27:10.183Z,96052.00
2019-02-10T17:27:19.638Z,96044.00
2019-02-10T17:27:29.059Z,96046.00
2019-02-10T17:27:38.445Z,96051.00
2019-02-10T17:27:47.891Z,96044.00
2019-02-10T17:27:57.280Z,96052.00
2019-02-10T17:28:06.849Z,96049.00
2019-02-10T17:28:16.419Z,96052.00
2019-02-10T17:28:25.999Z,96043.00
2019-02-10T17:28:35.391Z,96056.00
2019-02-10T17:28:46.832Z,96061.00
2019-02-10T17:28:56.225Z,96058.00
2019-02-10T17:29:06.019Z,96060.00
2019-02-10T17:29:15.389Z,96057.00
2019-02-10T17:29:24.882Z,96058.00
2019-02-10T17:29:34.269Z,96064.00
2019-02-10T17:29:43.691Z,96070.00
2019-02-10T17:29:53.598Z,96065.00
2019-02-10T17:30:03.003Z,96056.00
2019-02-10T17:30:14.946Z,96064.00
2019-02-10T17:30:24.317Z,96061.00
2019-02-10T17:30:33.702Z,96058.00
2019-02-10T17:30:43.395Z,96057.00
2019-02-10T17:30:52.848Z,96060.00
2019-02-10T17:31:02.338Z,96059.00
2019-02-10T17:31:11.725Z,96059.00
2019-02-10T17:31:21.144Z,96056.00
2019-02-10T17:31:30.530Z,96061.00
2019-02-10T17:31:39.993Z,96063.00
2019-02-10T17:31:49.482Z,96069.00
2019-02-10T17:31:58.891Z,96066.00
2019-02-10T17:32:08.275Z,96065.00
2019-02-10T17:32:17.689Z,96070.00
2019-02-10T17:32:27.074Z,96073.00
2019-02-10T17:32:36.494Z,96065.00
2019-02-10T17:32:45.882Z,96067.00
2019-02-10T17:32:55.297Z,96068.00
2019-02-10T17:33:04.687Z,96070.00
2019-02-10T17:33:14.107Z,96071.00
2019-02-10T17:33:23.495Z,96079.00
2019-02-10T17:33:32.935Z,96077.00
2019-02-10T17:33:42.328Z,96078.00
2019-02-10T17:33:51.730Z,96075.00
2019-02-10T17:34:11.545Z,96073.00
2019-02-10T17:34:20.964Z,96074.00
2019-02-10T17:34:30.379Z,96086.00
2019-02-10T17:34:39.977Z,96070.00
2019-02-10T17:34:49.500Z,96077.00
2019-02-10T17:34:58.925Z,96082.00
2019-02-10T17:35:10.784Z,96083.00
2019-02-10T17:35:20.233Z,96094.00
2019-02-10T17:35:29.645Z,96086.00
2019-02-10T17:35:39.072Z,96090.00
2019-02-10T17:35:48.507Z,96091.00
2019-02-10T17:35:57.928Z,96096.00
2019-02-10T17:36:26.339Z,96091.00
2019-02-10T17:36:35.784Z,96095.00
2019-02-10T17:36:45.207Z,96094.00
2019-02-10T17:36:54.628Z,96086.00
2019-02-10T17:37:04.059Z,96091.00
2019-02-10T17:37:13.479Z,96098.00
2019-02-10T17:37:22.897Z,96093.00
2019-02-10T17:37:32.357Z,96100.00
2019-02-10T17:37:41.781Z,96098.00
2019-02-10T17:37:51.199Z,96095.00
2019-02-10T17:38:00.794Z,96098.00
2019-02-10T17:38:10.212Z,96098.00
2019-02-10T17:38:19.733Z,96094.00
2019-02-10T17:38:29.180Z,96095.00
2019-02-10T17:38:38.680Z,96092.00
2019-02-10T17:38:48.101Z,96098.00
2019-02-10T17:38:57.590Z,96100.00
2019-02-10T17:39:08.448Z,96096.00
2019-02-10T17:39:17.886Z,96091.00
2019-02-10T17:39:27.307Z,96095.00
2019-02-10T17:39:36.799Z,96086.00
2019-02-10T17:39:46.309Z,96089.00
2019-02-10T17:39:55.736Z,96081.00
2019-02-10T17:40:14.405Z,96078.00
2019-02-10T17:40:32.661Z,96081.00
2019-02-10T17:41:07.664Z,96091.00
2019-02-10T17:41:36.722Z,96068.00
2019-02-10T17:41:46.411Z,96071.00
2019-02-10T17:41:55.835Z,96070.00
2019-02-10T17:42:05.247Z,96078.00
2019-02-10T17:42:14.669Z,96066.00
2019-02-10T17:42:24.094Z,96072.00
2019-02-10T17:42:33.512Z,96076.00
2019-02-10T17:42:42.939Z,96067.00
2019-02-10T17:42:52.361Z,96052.00
2019-02-10T17:43:03.132Z,96070.00
2019-02-10T17:43:13.018Z,96061.00
2019-02-10T17:43:28.071Z,96064.00
2019-02-10T17:43:33.661Z,96072.00
2019-02-10T17:43:43.085Z,96069.00
2019-02-10T17:43:52.532Z,96068.00
2019-02-10T17:44:01.953Z,96071.00
2019-02-10T17:44:11.393Z,96063.00
2019-02-10T17:44:20.813Z,96064.00
2019-02-10T17:44:30.399Z,96066.00
2019-02-10T17:44:39.821Z,96068.00
2019-02-10T17:44:49.238Z,96060.00
2019-02-10T17:44:58.707Z,96067.00
2019-02-10T17:45:10.060Z,96065.00
2019-02-10T17:45:19.474Z,96067.00
2019-02-10T17:45:28.885Z,96065.00
2019-02-10T17:45:40.072Z,96063.00
2019-02-10T17:45:49.557Z,96065.00
2019-02-10T17:45:58.954Z,96076.00
2019-02-10T17:46:08.378Z,96066.00
2019-02-10T17:46:17.791Z,96068.00
2019-02-10T17:46:27.201Z,96093.00
2019-02-10T17:46:36.611Z,96073.00
2019-02-10T17:46:46.029Z,96075.00
2019-02-10T17:46:55.481Z,96080.00
2019-02-10T17:47:04.893Z,96078.00
2019-02-10T17:47:14.302Z,96077.00
2019-02-10T17:47:23.726Z,96078.00
2019-02-10T17:47:33.145Z,96073.00
2019-02-10T17:47:42.565Z,96082.00
2019-02-10T17:47:53.252Z,96081.00
2019-02-10T17:48:03.740Z,96078.00
2019-02-10T17:48:13.133Z,96082.00
2019-02-10T17:48:23.622Z,96088.00
2019-02-10T17:48:33.084Z,96079.00
2019-02-10T17:48:42.519Z,96078.00
2019-02-10T17:48:51.921Z,96078.00
2019-02-10T17:49:01.346Z,96085.00
2019-02-10T17:49:10.740Z,96084.00
2019-02-10T17:49:20.207Z,96090.00
2019-02-10T17:49:29.658Z,96084.00
2019-02-10T17:49:39.086Z,96087.00
2019-02-10T17:49:48.579Z,96085.00
2019-02-10T17:49:57.992Z,96089.00
2019-02-10T17:50:12.073Z,96086.00
2019-02-10T17:50:21.502Z,96094.00
2019-02-10T17:50:30.897Z,96100.00
2019-02-10T17:50:40.309Z,96102.00
2019-02-10T17:50:49.711Z,96104.00
2019-02-10T17:50:59.120Z,96096.00
2019-02-10T17:51:08.512Z,96103.00
2019-02-10T17:51:17.932Z,96113.00
2019-02-10T17:51:27.323Z,96111.00
2019-02-10T17:51:36.745Z,96115.00
2019-02-10T17:51:46.141Z,96110.00
2019-02-10T17:51:55.562Z,96116.00
2019-02-10T17:52:04.952Z,96116.00
2019-02-10T17:52:14.391Z,96114.00
2019-02-10T17:52:31.712Z,96121.00
2019-02-10T17:52:34.913Z,96117.00
2019-02-10T17:52:44.305Z,96114.00
2019-02-10T17:52:53.725Z,96120.00
2019-02-10T17:53:03.120Z,96124.00
2019-02-10T17:53:12.577Z,96129.00
2019-02-10T17:53:21.972Z,96129.00
2019-02-10T17:53:31.385Z,96124.00
2019-02-10T17:53:40.776Z,96127.00
2019-02-10T17:53:50.197Z,96134.00
2019-02-10T17:53:59.589Z,96126.00
2019-02-10T17:54:09.138Z,96129.00
2019-02-10T17:54:19.479Z,96125.00
2019-02-10T17:54:28.985Z,96126.00
2019-02-10T17:54:38.376Z,96120.00
2019-02-10T17:54:47.800Z,96127.00
2019-02-10T17:54:57.194Z,96121.00
2019-02-10T17:55:08.605Z,96125.00
2019-02-10T17:55:18.113Z,96121.00
2019-02-10T17:55:27.572Z,96123.00
2019-02-10T17:55:36.964Z,96117.00
2019-02-10T17:55:46.388Z,96113.00
2019-02-10T17:55:55.789Z,96110.00
2019-02-10T17:56:05.198Z,96114.00
2019-02-10T17:56:14.592Z,96113.00
2019-02-10T17:56:24.017Z,96112.00
2019-02-10T17:56:33.408Z,96108.00
2019-02-10T17:56:42.828Z,96109.00
2019-02-10T17:56:52.221Z,96108.00
2019-02-10T17:57:01.764Z,96115.00
2019-02-10T17:57:11.216Z,96114.00
2019-02-10T17:57:20.640Z,96106.00
2019-02-10T17:57:30.028Z,96117.00
2019-02-10T17:57:39.456Z,96116.00
2019-02-10T17:57:48.859Z,96108.00
2019-02-10T17:57:58.292Z,96108.00
2019-02-10T17:58:07.690Z,96112.00
2019-02-10T17:58:17.101Z,96105.00
2019-02-10T17:58:26.559Z,96110.00
2019-02-10T17:58:35.956Z,96112.00
2019-02-10T17:58:45.344Z,96114.00
2019-02-10T17:58:54.761Z,96112.00
2019-02-10T17:59:07.306Z,96112.00
2019-02-10T17:59:16.862Z,96111.00
2019-02-10T17:59:26.251Z,96109.00
2019-02-10T17:59:35.673Z,96110.00
2019-02-10T17:59:45.067Z,96112.00
2019-02-10T17:59:54.648Z,96107.00
2019-02-10T18:00:12.737Z,96112.00
2019-02-10T18:00:23.676Z,96118.00
2019-02-10T18:00:37.417Z,96113.00
2019-02-10T18:00:48.357Z,96122.00
2019-02-10T18:00:57.749Z,96112.00
2019-02-10T18:01:07.852Z,96113.00
2019-02-10T18:01:17.244Z,96112.00
2019-02-10T18:01:26.665Z,96119.00
2019-02-10T18:01:36.059Z,96113.00
2019-02-10T18:01:45.481Z,96114.00
2019-02-10T18:01:55.940Z,96112.00
2019-02-10T18:02:05.364Z,96109.00
2019-02-10T18:02:14.755Z,96112.00
2019-02-10T18:02:24.172Z,96122.00
2019-02-10T18:02:33.570Z,96121.00
2019-02-10T18:02:42.993Z,96114.00
2019-02-10T18:02:52.394Z,96118.00
2019-02-10T18:03:01.819Z,96127.00
2019-02-10T18:03:11.216Z,96125.00
2019-02-10T18:03:20.648Z,96127.00
2019-02-10T18:03:30.161Z,96121.00
2019-02-10T18:03:39.581Z,96126.00
2019-02-10T18:03:48.976Z,96129.00
2019-02-10T18:03:58.396Z,96129.00
2019-02-10T18:04:07.789Z,96133.00
2019-02-10T18:04:17.211Z,96133.00
2019-02-10T18:04:26.603Z,96130.00
2019-02-10T18:04:37.547Z,96130.00
2019-02-10T18:04:48.363Z,96132.00
2019-02-10T18:04:57.782Z,96141.00
2019-02-10T18:05:08.712Z,96134.00
2019-02-10T18:05:18.129Z,96148.00
2019-02-10T18:05:27.569Z,96145.00
2019-02-10T18:05:37.076Z,96137.00
2019-02-10T18:05:46.479Z,96147.00
2019-02-10T18:05:55.895Z,96144.00
2019-02-10T18:06:06.259Z,96142.00
2019-02-10T18:06:15.675Z,96151.00
2019-02-10T18:06:26.299Z,96152.00
2019-02-10T18:06:35.665Z,96147.00
2019-02-10T18:06:45.057Z,96154.00
2019-02-10T18:06:54.473Z,96160.00
2019-02-10T18:07:03.886Z,96160.00
2019-02-10T18:07:14.360Z,96168.00
2019-02-10T18:07:23.747Z,96175.00
2019-02-10T18:07:33.169Z,96167.00
2019-02-10T18:07:42.561Z,96183.00
2019-02-10T18:07:51.987Z,96178.00
2019-02-10T18:08:01.380Z,96170.00
2019-02-10T18:08:10.800Z,96169.00
2019-02-10T18:08:20.243Z,96179.00
2019-02-10T18:08:29.649Z,96183.00
2019-02-10T18:08:39.045Z,96182.00
2019-02-10T18:08:48.464Z,96189.00
2019-02-10T18:08:58.829Z,96188.00
2019-02-10T18:09:08.253Z,96184.00
2019-02-10T18:09:17.649Z,96192.00
2019-02-10T18:09:27.080Z,96189.00
2019-02-10T18:09:36.469Z,96198.00
2019-02-10T18:09:45.896Z,96199.00
2019-02-10T18:09:55.288Z,96209.00
2019-02-10T18:10:07.207Z,96207.00
2019-02-10T18:10:16.767Z,96210.00
2019-02-10T18:10:26.204Z,96205.00
2019-02-10T18:10:35.590Z,96208.00
2019-02-10T18:10:45.021Z,96210.00
2019-02-10T18:10:54.684Z,96210.00
2019-02-10T18:11:04.096Z,96205.00
2019-02-10T18:11:13.489Z,96210.00
2019-02-10T18:11:30.740Z,96209.00
2019-02-10T18:11:34.012Z,96219.00
2019-02-10T18:11:43.436Z,96217.00
2019-02-10T18:11:52.831Z,96220.00
2019-02-10T18:12:02.265Z,96230.00
2019-02-10T18:12:11.655Z,96235.00
2019-02-10T18:12:21.249Z,96239.00
2019-02-10T18:12:30.646Z,96205.00
2019-02-10T18:12:40.071Z,96238.00
2019-02-10T18:12:49.493Z,96248.00
2019-02-10T18:12:58.914Z,96251.00
2019-02-10T18:13:08.318Z,96250.00
2019-02-10T18:13:17.729Z,96248.00
2019-02-10T18:13:28.289Z,96245.00
2019-02-10T18:13:37.819Z,96229.00
2019-02-10T18:13:47.215Z,96273.00
2019-02-10T18:13:56.632Z,96282.00
2019-02-10T18:14:07.554Z,96279.00
2019-02-10T18:14:18.510Z,96240.00
2019-02-10T18:14:32.306Z,96244.00
2019-02-10T18:14:43.261Z,96255.00
2019-02-10T18:15:06.453Z,96260.00
2019-02-10T18:15:17.400Z,96258.00
2019-02-10T18:15:28.327Z,96271.00
2019-02-10T18:15:55.530Z,96261.00
2019-02-10T18:16:12.296Z,96268.00
2019-02-10T18:16:23.244Z,96261.00
2019-02-10T18:16:34.169Z,96254.00
2019-02-10T18:16:45.123Z,96255.00
2019-02-10T18:17:12.373Z,96270.00
2019-02-10T18:17:26.094Z,96262.00
2019-02-10T18:17:37.013Z,96260.00
2019-02-10T18:18:04.295Z,96260.00
2019-02-10T18:18:15.221Z,96257.00
2019-02-10T18:18:29.025Z,96261.00
2019-02-10T18:18:39.948Z,96261.00
2019-02-10T18:18:53.369Z,96265.00
2019-02-10T18:19:09.836Z,96260.00
2019-02-10T18:19:29.792Z,96270.00
2019-02-10T18:19:40.708Z,96263.00
2019-02-10T18:19:51.648Z,96258.00
2019-02-10T18:20:12.684Z,96263.00
2019-02-10T18:20:26.309Z,96265.00
2019-02-10T18:20:55.304Z,96256.00
2019-02-10T18:21:21.372Z,96265.00
2019-02-10T18:21:47.501Z,96258.00
2019-02-10T18:21:58.476Z,96267.00
2019-02-10T18:22:09.395Z,96262.00
2019-02-10T18:22:20.340Z,96258.00
2019-02-10T18:22:31.271Z,96259.00
2019-02-10T18:22:43.185Z,96264.00
2019-02-10T18:22:54.107Z,96258.00
2019-02-10T18:23:21.580Z,96261.00
2019-02-10T18:23:41.468Z,96268.00
2019-02-10T18:23:52.418Z,96268.00
2019-02-10T18:24:09.074Z,96264.00
2019-02-10T18:24:20.026Z,96272.00
2019-02-10T18:24:33.639Z,96277.00
2019-02-10T18:24:59.647Z,96276.00
2019-02-10T18:25:10.574Z,96281.00
2019-02-10T18:25:27.417Z,96278.00
2019-02-10T18:25:38.364Z,96281.00
2019-02-10T18:25:58.264Z,96281.00
2019-02-10T18:26:18.159Z,96277.00
2019-02-10T18:26:46.566Z,96280.00
2019-02-10T18:26:57.528Z,96289.00
2019-02-10T18:27:08.457Z,96284.00
2019-02-10T18:27:22.602Z,96275.00
2019-02-10T18:27:52.067Z,96276.00
2019-02-10T18:28:03.012Z,96283.00
2019-02-10T18:28:13.964Z,96286.00
2019-02-10T18:28:27.717Z,96294.00
2019-02-10T18:28:38.710Z,96278.00
2019-02-10T18:29:04.673Z,96287.00
2019-02-10T18:29:36.495Z,96301.00
2019-02-10T18:29:51.752Z,96315.00
2019-02-10T18:30:02.955Z,96294.00
2019-02-10T18:30:21.502Z,96294.00
2019-02-10T18:30:48.854Z,96292.00
2019-02-10T18:31:08.621Z,96302.00
2019-02-10T18:31:22.372Z,96298.00
2019-02-10T18:31:33.341Z,96303.00
2019-02-10T18:31:44.272Z,96299.00
2019-02-10T18:31:58.007Z,96300.00
2019-02-10T18:32:11.796Z,96309.00
2019-02-10T18:32:22.753Z,96310.00
2019-02-10T18:32:33.695Z,96313.00
2019-02-10T18:32:47.745Z,96311.00
2019-02-10T18:32:58.697Z,96308.00
2019-02-10T18:33:09.646Z,96321.00
2019-02-10T18:33:36.630Z,96318.00
2019-02-10T18:34:02.564Z,96329.00
2019-02-10T18:34:13.504Z,96331.00
2019-02-10T18:34:24.460Z,96328.00
2019-02-10T18:34:35.413Z,96324.00
2019-02-10T18:52:13.157Z,96334.00
2019-02-10T18:52:24.102Z,96329.00
2019-02-10T18:52:51.368Z,96334.00
2019-02-10T18:53:11.327Z,96338.00
2019-02-10T18:53:22.271Z,96345.00
2019-02-10T18:53:36.179Z,96334.00
2019-02-10T18:53:50.270Z,96343.00
2019-02-10T18:54:07.057Z,96335.00
2019-02-10T18:54:23.786Z,96343.00
2019-02-10T18:54:40.558Z,96347.00
2019-02-10T18:55:07.865Z,96345.00
2019-02-10T18:55:18.823Z,96345.00
2019-02-10T18:55:47.887Z,96345.00
2019-02-10T18:56:14.207Z,96349.00
2019-02-10T18:56:25.183Z,96356.00
2019-02-10T18:56:36.136Z,96359.00
2019-02-10T18:56:53.202Z,96351.00
2019-02-10T18:57:12.937Z,96364.00
2019-02-10T18:57:29.637Z,96367.00
2019-02-10T18:57:59.609Z,96365.00
2019-02-10T18:58:16.593Z,96357.00
2019-02-10T18:58:33.247Z,96351.00
2019-02-10T18:58:44.191Z,96368.00
2019-02-10T18:59:11.477Z,96364.00
2019-02-10T18:59:31.680Z,96360.00
2019-02-10T18:59:42.649Z,96374.00
2019-02-10T18:59:53.807Z,96367.00
2019-02-10T19:00:05.435Z,96374.00
2019-02-10T19:00:19.551Z,96373.00
2019-02-10T19:00:30.596Z,96369.00
2019-02-10T19:00:44.463Z,96367.00
2019-02-10T19:00:55.448Z,96377.00
2019-02-10T19:01:06.394Z,96371.00
2019-02-10T19:01:20.446Z,96377.00
2019-02-10T19:01:31.470Z,96370.00
2019-02-10T19:01:51.410Z,96371.00
2019-02-10T19:02:02.358Z,96379.00
2019-02-10T19:02:13.373Z,96375.00
2019-02-10T19:02:30.264Z,96371.00
2019-02-10T19:03:00.398Z,96379.00
2019-02-10T19:03:27.525Z,96381.00
2019-02-10T19:03:41.071Z,96382.00
2019-02-10T19:04:10.345Z,96387.00
2019-02-10T19:04:24.324Z,96389.00
2019-02-10T19:04:51.456Z,96387.00
2019-02-10T19:05:07.884Z,96394.00
2019-02-10T19:05:21.526Z,96392.00
2019-02-10T19:05:35.039Z,96393.00
2019-02-10T19:05:58.046Z,96389.00
2019-02-10T19:06:08.994Z,96396.00
2019-02-10T19:06:19.927Z,96397.00
2019-02-10T19:06:36.619Z,96394.00
2019-02-10T19:06:56.653Z,96391.00
2019-02-10T19:07:07.687Z,96401.00
2019-02-10T19:07:24.561Z,96400.00
2019-02-10T19:07:35.591Z,96393.00
2019-02-10T19:07:46.597Z,96387.00
2019-02-10T19:08:06.537Z,96393.00
2019-02-10T19:08:17.572Z,96396.00
2019-02-10T19:08:31.152Z,96404.00
2019-02-10T19:08:44.775Z,96399.00
2019-02-10T19:09:07.950Z,96398.00
2019-02-10T19:09:35.145Z,96392.00
2019-02-10T19:09:55.020Z,96390.00
2019-02-10T19:10:10.425Z,96388.00
2019-02-10T19:10:33.316Z,96393.00
2019-02-10T19:11:02.494Z,96387.00
2019-02-10T19:11:18.941Z,96391.00
2019-02-10T19:11:29.940Z,96388.00
2019-02-10T19:12:00.485Z,96391.00
2019-02-10T19:12:26.455Z,96385.00
2019-02-10T19:12:40.204Z,96390.00
2019-02-10T19:12:56.708Z,96386.00
2019-02-10T19:13:23.634Z,96394.00
2019-02-10T19:13:49.637Z,96392.00
2019-02-10T19:14:00.591Z,96400.00
2019-02-10T19:14:20.384Z,96394.00
2019-02-10T19:14:44.262Z,96399.00
2019-02-10T19:14:50.166Z,96398.00
2019-02-10T19:15:01.121Z,96397.00
2019-02-10T19:15:20.925Z,96396.00
2019-02-10T19:15:43.976Z,96404.00
2019-02-10T19:16:00.695Z,96405.00
2019-02-10T19:16:11.653Z,96404.00
2019-02-10T19:16:34.499Z,96407.00
2019-02-10T19:16:51.544Z,96414.00
2019-02-10T19:17:02.476Z,96410.00
2019-02-10T19:17:31.112Z,96408.00
2019-02-10T19:17:42.201Z,96415.00
2019-02-10T19:17:55.740Z,96403.00
2019-02-10T19:18:09.565Z,96415.00
2019-02-10T19:18:32.816Z,96418.00
2019-02-10T19:18:43.755Z,96417.00
2019-02-10T19:19:00.947Z,96414.00
2019-02-10T19:19:12.410Z,96413.00
2019-02-10T19:19:25.978Z,96412.00
2019-02-10T19:19:39.575Z,96415.00
2019-02-10T19:19:56.313Z,96421.00
2019-02-10T19:20:25.745Z,96420.00
2019-02-10T19:20:45.510Z,96421.00
2019-02-10T19:21:11.369Z,96425.00
2019-02-10T19:21:40.831Z,96429.00
2019-02-10T19:22:09.979Z,96420.00
2019-02-10T19:22:23.861Z,96426.00
2019-02-10T19:22:34.809Z,96428.00
2019-02-10T19:23:01.834Z,96431.00
2019-02-10T19:23:12.831Z,96428.00
2019-02-10T19:23:23.866Z,96429.00
2019-02-10T19:23:40.991Z,96432.00
2019-02-10T19:23:58.020Z,96431.00
2019-02-10T19:24:09.013Z,96429.00
2019-02-10T19:24:21.043Z,96428.00
2019-02-10T19:24:44.256Z,96431.00
2019-02-10T19:25:04.160Z,96427.00
2019-02-10T19:25:17.823Z,96429.00
2019-02-10T19:25:34.809Z,96428.00
2019-02-10T19:25:51.937Z,96428.00
2019-02-10T19:26:03.272Z,96416.00
2019-02-10T19:26:29.544Z,96430.00
2019-02-10T19:26:40.497Z,96419.00
2019-02-10T19:26:53.994Z,96431.00
2019-02-10T19:27:13.584Z,96416.00
2019-02-10T19:27:41.225Z,96416.00
2019-02-10T19:28:00.904Z,96426.00
2019-02-10T19:28:23.641Z,96419.00
2019-02-10T19:28:40.509Z,96424.00
2019-02-10T19:29:00.738Z,96419.00
2019-02-10T19:29:23.456Z,96425.00
2019-02-10T19:29:34.408Z,96424.00
2019-02-10T19:29:45.368Z,96417.00
2019-02-10T19:30:08.107Z,96419.00
2019-02-10T19:30:22.025Z,96430.00
2019-02-10T19:30:39.012Z,96427.00
2019-02-10T19:30:59.282Z,96421.00
2019-02-10T19:31:10.249Z,96426.00
2019-02-10T19:31:39.271Z,96419.00
2019-02-10T19:32:08.647Z,96426.00
2019-02-10T19:32:32.694Z,96425.00
2019-02-10T19:32:46.724Z,96417.00
2019-02-10T19:33:03.852Z,96416.00
2019-02-10T19:33:14.944Z,96415.00
2019-02-10T19:33:25.981Z,96420.00
2019-02-10T19:33:36.937Z,96416.00
2019-02-10T19:34:04.492Z,96411.00
2019-02-10T19:34:15.480Z,96417.00
2019-02-10T19:34:35.501Z,96419.00
2019-02-10T19:34:58.412Z,96419.00
2019-02-10T19:35:12.329Z,96428.00
2019-02-10T19:35:35.117Z,96417.00
2019-02-10T19:35:46.070Z,96422.00
2019-02-10T19:35:57.017Z,96415.00
2019-02-10T19:36:11.073Z,96426.00
2019-02-10T19:36:22.097Z,96417.00
2019-02-10T19:36:35.895Z,96420.00
2019-02-10T19:36:52.632Z,96430.00
2019-02-10T19:37:03.660Z,96425.00
2019-02-10T19:37:17.532Z,96423.00
2019-02-10T19:37:31.266Z,96416.00
2019-02-10T19:37:58.484Z,96424.00
2019-02-10T19:38:18.705Z,96424.00
2019-02-10T19:38:32.528Z,96420.00
2019-02-10T19:38:52.396Z,96426.00
2019-02-10T19:39:03.355Z,96416.00
2019-02-10T19:39:22.177Z,96421.00
2019-02-10T19:39:48.290Z,96419.00
2019-02-10T19:40:14.204Z,96420.00
2019-02-10T19:40:25.224Z,96427.00
2019-02-10T19:40:36.179Z,96416.00
2019-02-10T19:40:52.916Z,96427.00
2019-02-10T19:41:12.849Z,96421.00
2019-02-10T19:41:29.707Z,96428.00
2019-02-10T19:41:40.660Z,96429.00
2019-02-10T19:42:00.769Z,96432.00
2019-02-10T19:42:17.568Z,96424.00
2019-02-10T19:42:34.479Z,96421.00
2019-02-10T19:43:01.547Z,96419.00
2019-02-10T19:43:24.389Z,96422.00
2019-02-10T19:43:50.364Z,96423.00
2019-02-10T19:44:13.142Z,96437.00
2019-02-10T19:44:39.360Z,96430.00
2019-02-10T19:44:50.305Z,96437.00